Tiempo atmosférico en la estación meteorológica de Fuentesauco, Zamora (811 m.)



Fecha
DESCASC
Temp. máxima en grados centígrados (hora)
DESCASC
Temp. mínima en grados centígrados (hora)
DESCASC
Temp. media en grados centígrados
DESCASC
Racha de viento máxima en m/sg (hora)
DESCASC
Velocidad máxima media en intervalos de 10 minutos(hora)
DESCASC
Precipitaciones diarias en mm
DESCASC
Precipitaciones de 00:00 a 06:00 en mm
DESCASC
Precipitaciones de 06:00 a 12:00 en mm
DESCASC
Precipitaciones de 12:00 a 18:00 en mm
DESCASC
Precipitaciones de 18:00 a 24:00 en mm
DESCASC
25-04-2019 10.2 (17:20) 3.9 (08:10) 7 21.94 (14:40) 12.5 (17:40) 2.6 2.4 0.2 0 0
24-04-2019 13.8 (15:00) 2.6 (01:50) 8.2 20.28 (14:00) 14.72 (15:20) 11.4 0 6.4 1.8 3.2
23-04-2019 11.1 (00:00) 3.2 (23:20) 7.2 13.89 (03:30) 8.89 (16:10) 4.2 1.4 0.4 1.6 0.8
22-04-2019 17.9 (16:20) 3.1 (00:00) 10.5 13.33 (20:00) 9.44 (20:00) 0 0 0 0 0
21-04-2019 16.3 (16:30) 5.7 (00:00) 11 15.28 (16:00) 9.17 (16:50) 0 0 0 0 0
20-04-2019 20.4 (17:00) 8.4 (00:00) 14.4 16.11 (18:40) 10.28 (12:00) 0 0 0 0 0
19-04-2019 14.6 (16:10) 7.2 (00:00) 10.9 13.61 (18:40) 9.72 (18:20) 5.8 5.6 0.2 0 0
18-04-2019 13.6 (15:10) 5.3 (00:00) 9.5 10 (17:20) 7.22 (17:00) 1.2 0.4 0 0 0.8
17-04-2019 19.4 (15:30) 6.9 (00:00) 13.1 16.11 (20:30) 10.83 (20:30) 0 0 0 0 0
16-04-2019 19.9 (18:10) 2.1 (00:00) 11 6.94 (16:30) 3.61 (15:50) 0 0 0 0 0
15-04-2019 19.6 (13:40) 7.1 (00:00) 13.4 17.78 (13:40) 12.5 (13:30) 0.4 0 0 0 0.4
14-04-2019 19.8 (18:20) 8.9 (00:00) 14.3 8.33 (18:10) 5.28 (18:30) 0 0 0 0 0
13-04-2019 20 (18:00) 3.7 (00:00) 11.9 8.06 (19:20) 5.28 (19:20) 0 0 0 0 0
12-04-2019 16.3 (17:40) -0.4 (07:00) 7.9 7.5 (16:50) 4.17 (01:00) 0 0 0 0 0
11-04-2019 13.8 (17:00) 0.6 (00:00) 7.2 6.67 (17:00) 3.89 (17:10) 0 0 0 0 0
10-04-2019 10.7 (19:30) 3.8 (00:00) 7.2 12.78 (15:20) 8.33 (15:20) 3.8 0 0 3.4 0.4
09-04-2019 11.1 (17:00) 3.6 (00:00) 7.4 15 (20:30) 9.72 (12:00) 1.4 0 0.8 0 0.6
08-04-2019 12.3 (16:50) 4.5 (00:00) 8.4 15.28 (18:10) 8.89 (18:20) 0.6 0.4 0.2 0 0
07-04-2019 10.2 (14:20) 1.8 (00:00) 6 11.11 (16:10) 7.5 (16:10) 2.6 0.2 0 1.2 1.2
06-04-2019 8.3 (18:20) 2.4 (00:00) 5.4 18.33 (11:50) 13.33 (11:50) 0.6 0 0.2 0.4 0
05-04-2019 9.3 (17:30) 1.8 (00:00) 5.6 13.33 (19:20) 8.61 (21:10) 3 0.4 1.4 1.2 0
04-04-2019 11.2 (16:50) -2.3 (-00:0) 4.4 11.94 (19:10) 7.5 (17:10) 1 0 0 0 1
03-04-2019 12.6 (17:30) 1.9 (07:10) 7.3 11.67 (19:40) 8.06 (18:50) 0 0 0 0 0
02-04-2019 17.4 (17:10) 5.3 (00:00) 11.3 10.28 (16:50) 6.67 (18:20) 0 0 0 0 0
01-04-2019 17.4 (16:30) 2.2 (00:00) 9.8 6.39 (22:40) 4.17 (04:30) 0 0 0 0 0
31-03-2019 18.7 (16:50) 1.2 (00:00) 10 8.89 (18:30) 5.56 (18:40) 3.2 0 0 0 3.2
30-03-2019 18.8 (15:50) 4.9 (00:00) 11.8 6.94 (17:20) 3.33 (17:10) 0 0 0 0 0
29-03-2019 19.7 (16:00) -0.6 (-00:0) 9.6 7.5 (15:40) 3.89 (18:00) 0 0 0 0 0
28-03-2019 17.3 (17:00) -0.5 (-00:0) 8.4 8.89 (17:10) 5 (01:20) 0 0 0 0 0
27-03-2019 18.1 (16:50) -1 (-00:0) 8.6 10 (15:20) 6.67 (18:10) 0 0 0 0 0

Gráficas

Temp. máximas Temp. mínimas Temp. medias Precipitaciones Rachas de viento máximas Velocidades máximas media en intervalos de 10 minutos

Datos horarios

Fecha y hora oficial Temperatura (ºC) Velocidad del viento (km/h) Dirección del viento Racha (km/h) Dirección de racha Precipitación (mm) Presión (hPa) Tendencia (hPa) Humedad (%)
2019-04-25 23:00:00 5.7 29 Sudoeste 50 Sudoeste 0 -- -- 86
2019-04-25 22:00:00 6.2 33 Sudoeste 45 Oeste 0 -- -- 79
2019-04-25 21:00:00 7 23 Sudoeste 51 Oeste 0 -- -- 80
2019-04-25 20:00:00 8.6 35 Oeste 65 Oeste 0 -- -- 67
2019-04-25 19:00:00 8.8 44 Sudoeste 67 Sudoeste 0 -- -- 68
2019-04-25 18:00:00 9.7 42 Sudoeste 65 Sudoeste 0 -- -- 66
2019-04-25 17:00:00 8.9 34 Sudoeste 56 Oeste 0 -- -- 74
2019-04-25 16:00:00 8.9 39 Oeste 63 Oeste 0 -- -- 71
2019-04-25 15:00:00 10.1 39 Sudoeste 79 Oeste 0 -- -- 64
2019-04-25 14:00:00 9.6 42 Sudoeste 62 Sudoeste 0 -- -- 65
2019-04-25 13:00:00 8.7 33 Sudoeste 54 Sudoeste 0 -- -- 70
2019-04-25 12:00:00 7.2 32 Sudoeste 53 Sudoeste 0 -- -- 78
2019-04-25 11:00:00 4.8 38 Sudoeste 52 Sudoeste 0.2 -- -- 85
2019-04-25 10:00:00 4.7 37 Sudoeste 51 Sudoeste 0 -- -- 87
2019-04-25 09:00:00 4.4 35 Sudoeste 48 Oeste 0 -- -- 87
2019-04-25 08:00:00 4.1 28 Sudoeste 45 Sudoeste 0 -- -- 89
2019-04-25 07:00:00 4.2 28 Sudoeste 53 Sudoeste 0 -- -- 90
2019-04-25 06:00:00 4.4 32 Oeste 52 Oeste 0.8 -- -- 90
2019-04-25 05:00:00 4.8 30 Sudoeste 45 Oeste 0.4 -- -- 89
2019-04-25 04:00:00 4.6 30 Sudoeste 45 Sudoeste 0 -- -- 89
2019-04-25 03:00:00 5.1 27 Sudoeste 54 Oeste 0.8 -- -- 90
2019-04-25 02:00:00 5.6 21 Sudoeste 50 Sudoeste 0 -- -- 90
2019-04-25 01:00:00 6.4 28 Oeste 47 Sudoeste 0.4 -- -- 90
2019-04-25 00:00:00 7 30 Oeste 46 Sudoeste 1.4 -- -- 91
2019-04-24 23:00:00 7.6 29 Sudoeste 47 Sudoeste 0.8 -- -- 90
2019-04-24 22:00:00 8.2 32 Sudoeste 49 Sudoeste 0.4 -- -- 90
2019-04-24 21:00:00 8.6 32 Sudoeste 45 Sudoeste 0 -- -- 85
2019-04-24 20:00:00 9 24 Sudoeste 50 Sudoeste 0.2 -- -- 85
2019-04-24 19:00:00 8.9 30 Sudoeste 67 Sudoeste 0.4 -- -- 89
2019-04-24 18:00:00 10 39 Sudoeste 55 Sudoeste 0 -- -- 79
2019-04-24 17:00:00 9.5 38 Oeste 63 Oeste 0.8 -- -- 86
2019-04-24 16:00:00 11.2 35 Sudoeste 73 Sudoeste 0.8 -- -- 87
2019-04-24 15:00:00 13.8 48 Sudoeste 69 Sudoeste 0 -- -- 68
2019-04-24 14:00:00 11.4 47 Sudoeste 73 Sudoeste 0.2 -- -- 83
2019-04-24 13:00:00 11.2 40 Sudoeste 67 Sudoeste 0 -- -- 77
2019-04-24 12:00:00 10.9 36 Sudoeste 54 Sudoeste 0 -- -- 79
2019-04-24 11:00:00 7.7 30 Sudoeste 47 Sudoeste 0.4 -- -- 89
2019-04-24 10:00:00 4.3 18 Sur 33 Sur 1 -- -- 95
2019-04-24 09:00:00 2.9 26 Sur 36 Sur 1.4 -- -- 94
2019-04-24 08:00:00 2.8 22 Sur 44 Sur 2.6 -- -- 92
2019-04-24 07:00:00 3.4 26 Sur 39 Sur 1 -- -- 90
2019-04-24 06:00:00 3.7 22 Sur 32 Sur 0 -- -- 90
2019-04-24 05:00:00 3.5 22 Sur 31 Sur 0 -- -- 90
2019-04-24 04:00:00 3.4 18 Sur 27 Sur 0 -- -- 91
2019-04-24 03:00:00 3.1 12 Sudoeste 19 Sudoeste 0 -- -- 92
2019-04-24 02:00:00 2.6 13 Sudoeste 31 Sudoeste 0 -- -- 92
2019-04-24 01:00:00 3.1 18 Sudoeste 32 Sudoeste 0 -- -- 91
2019-04-24 00:00:00 3.3 18 Sudoeste 31 Sudoeste 0 -- -- 89
2019-04-23 23:00:00 3.8 18 Sudoeste 30 Sudoeste 0 -- -- 84
2019-04-23 22:00:00 3.8 12 Sudoeste 21 Sudoeste 0 -- -- 88
2019-04-23 21:00:00 5 14 Sudoeste 28 Sudoeste 0.2 -- -- 86
2019-04-23 20:00:00 5.2 18 Noroeste 46 Oeste 0.4 -- -- 86
2019-04-23 19:00:00 7.2 13 Oeste 20 Oeste 0.2 -- -- 81
2019-04-23 18:00:00 5.4 17 Noroeste 39 Noroeste 0.4 -- -- 85
2019-04-23 17:00:00 4.7 22 Sudoeste 45 Sudoeste 1.2 -- -- 86
2019-04-23 16:00:00 8 27 Sudoeste 42 Sudoeste 0 -- -- 71
2019-04-23 15:00:00 10.7 31 Sudoeste 43 Sudoeste 0 -- -- 61
2019-04-23 14:00:00 10.6 22 Sudoeste 41 Oeste 0 -- -- 56
2019-04-23 13:00:00 9.1 24 Sudoeste 36 Oeste 0 -- -- 61
2019-04-23 12:00:00 7.4 16 Sudoeste 27 Sudoeste 0 -- -- 72
2019-04-23 11:00:00 5.6 21 Oeste 32 Oeste 0 -- -- 79
2019-04-23 10:00:00 5.4 21 Sudoeste 35 Oeste 0 -- -- 80
2019-04-23 09:00:00 5.5 19 Oeste 28 Oeste 0 -- -- 89
2019-04-23 08:00:00 4.8 9 Sudoeste 22 Sudoeste 0.2 -- -- 92
2019-04-23 07:00:00 5 15 Sudoeste 27 Oeste 0.2 -- -- 90
2019-04-23 06:00:00 5.7 12 Oeste 26 Sudoeste 0.4 -- -- 90
2019-04-23 05:00:00 6.1 8 Oeste 23 Oeste 0.2 -- -- 89
2019-04-23 04:00:00 7.2 15 Oeste 50 Oeste 0 -- -- 85
2019-04-23 03:00:00 9.4 15 Sudoeste 31 Sudoeste 0 -- -- 82
2019-04-23 02:00:00 10 9 Sur 13 Sur 0 -- -- 91
2019-04-23 01:00:00 10.1 7 Sudoeste 24 Sudoeste 0.8 -- -- 89
2019-04-23 00:00:00 11.1 17 Sudoeste 27 Sudoeste 0 -- -- 80
2019-04-22 23:00:00 11.9 9 Sudoeste 20 Sudoeste 0 -- -- 71
2019-04-22 22:00:00 12.5 12 Sudoeste 27 Oeste 0 -- -- 66
2019-04-22 21:00:00 13.7 17 Sudoeste 35 Sur 0 -- -- 54
2019-04-22 20:00:00 14.2 34 Sudoeste 48 Sudoeste 0 -- -- 62
2019-04-22 19:00:00 16.5 22 Sudoeste 38 Sudoeste 0 -- -- 48
2019-04-22 18:00:00 17 18 Sudoeste 33 Oeste 0 -- -- 45
2019-04-22 17:00:00 16.7 15 Oeste 31 Oeste 0 -- -- 43
2019-04-22 16:00:00 16.5 13 Oeste 26 Sudoeste 0 -- -- 43
2019-04-22 15:00:00 16.2 13 Oeste 29 Sudoeste 0 -- -- 43
2019-04-22 14:00:00 15.5 13 Oeste 23 Sudoeste 0 -- -- 49
2019-04-22 13:00:00 14.4 8 Noroeste 23 Sudoeste 0 -- -- 51
2019-04-22 12:00:00 13.6 5 Sudoeste 11 Oeste 0 -- -- 53
2019-04-22 11:00:00 12 3 Sur 8 Noroeste 0 -- -- 60
2019-04-22 10:00:00 9.7 2 Sudoeste 4 Sudoeste 0 -- -- 75
2019-04-22 09:00:00 6.1 0 Calma -- -- 0 -- -- 89
2019-04-22 08:00:00 3.5 0 Calma 4 Sudoeste 0 -- -- 88
2019-04-22 07:00:00 3.8 0 Calma 6 Sudoeste 0 -- -- 87
2019-04-22 06:00:00 5 0 Calma 9 Nordeste 0 -- -- 85
2019-04-22 05:00:00 6.1 5 Nordeste 8 Nordeste 0 -- -- 81
2019-04-22 04:00:00 6.9 0 Calma -- -- 0 -- -- 81
2019-04-22 03:00:00 6.7 0 Calma 4 Sudoeste 0 -- -- 81
2019-04-22 02:00:00 6.1 0 Calma 13 Este 0 -- -- 81
2019-04-22 01:00:00 6.4 9 Nordeste 12 Nordeste 0 -- -- 80
2019-04-22 00:00:00 7.9 6 Este 10 Nordeste 0 -- -- 75
2019-04-21 23:00:00 10.4 9 Este 15 Este 0 -- -- 65
2019-04-21 22:00:00 9.7 5 Este 13 Este 0 -- -- 68
2019-04-21 21:00:00 11.7 13 Nordeste 31 Nordeste 0 -- -- 60
2019-04-21 20:00:00 13.1 19 Este 35 Este 0 -- -- 56
2019-04-21 19:00:00 13.9 23 Este 40 Nordeste 0 -- -- 53
2019-04-21 18:00:00 14.8 29 Nordeste 45 Nordeste 0 -- -- 49
2019-04-21 17:00:00 15.8 31 Nordeste 47 Nordeste 0 -- -- 43
2019-04-21 16:00:00 16.1 33 Nordeste 55 Nordeste 0 -- -- 45
2019-04-21 15:00:00 15 29 Nordeste 41 Nordeste 0 -- -- 48
2019-04-21 14:00:00 14.1 25 Nordeste 34 Nordeste 0 -- -- 52
2019-04-21 13:00:00 13.7 20 Nordeste 34 Este 0 -- -- 52
2019-04-21 12:00:00 12.6 22 Nordeste 36 Nordeste 0 -- -- 59
2019-04-21 11:00:00 11.4 23 Nordeste 32 Nordeste 0 -- -- 65
2019-04-21 10:00:00 9.3 20 Nordeste 28 Nordeste 0 -- -- 74
2019-04-21 09:00:00 7.4 10 Nordeste 14 Nordeste 0 -- -- 83
2019-04-21 08:00:00 5.7 10 Nordeste 21 Nordeste 0 -- -- 88
2019-04-21 07:00:00 5.7 10 Nordeste 15 Nordeste 0 -- -- 86
2019-04-21 06:00:00 6.8 8 Norte 15 Nordeste 0 -- -- 87
2019-04-21 05:00:00 6.6 12 Nordeste 14 Nordeste 0 -- -- 85
2019-04-21 04:00:00 7.3 13 Nordeste 15 Nordeste 0 -- -- 85
2019-04-21 03:00:00 8.9 11 Nordeste 24 Nordeste 0 -- -- 77
2019-04-21 02:00:00 10.6 15 Nordeste 27 Nordeste 0 -- -- 69
2019-04-21 01:00:00 10.9 18 Nordeste 24 Nordeste 0 -- -- 66
2019-04-21 00:00:00 11.4 16 Nordeste 30 Nordeste 0 -- -- 63
2019-04-20 23:00:00 13.1 18 Nordeste 27 Nordeste 0 -- -- 54
2019-04-20 22:00:00 14.5 16 Nordeste 33 Nordeste 0 -- -- 48
2019-04-20 21:00:00 16.4 21 Nordeste 40 Nordeste 0 -- -- 41
2019-04-20 20:00:00 18.9 27 Nordeste 42 Nordeste 0 -- -- 37
2019-04-20 19:00:00 19.8 31 Nordeste 58 Nordeste 0 -- -- 35
2019-04-20 18:00:00 20.3 27 Nordeste 44 Nordeste 0 -- -- 38
2019-04-20 17:00:00 20.4 28 Nordeste 45 Nordeste 0 -- -- 38
2019-04-20 16:00:00 19.9 26 Nordeste 42 Nordeste 0 -- -- 39
2019-04-20 15:00:00 19.4 23 Nordeste 45 Nordeste 0 -- -- 39
2019-04-20 14:00:00 18.6 25 Nordeste 49 Este 0 -- -- 39
2019-04-20 13:00:00 17.8 36 Nordeste 54 Nordeste 0 -- -- 39
2019-04-20 12:00:00 16 37 Nordeste 51 Nordeste 0 -- -- 49
2019-04-20 11:00:00 14 33 Nordeste 49 Nordeste 0 -- -- 59
2019-04-20 10:00:00 11.8 30 Nordeste 37 Nordeste 0 -- -- 69
2019-04-20 09:00:00 8.7 17 Nordeste 29 Nordeste 0 -- -- 84
2019-04-20 08:00:00 8.6 24 Nordeste 35 Nordeste 0 -- -- 83
2019-04-20 07:00:00 8.9 25 Nordeste 38 Nordeste 0 -- -- 78
2019-04-20 06:00:00 9.6 25 Nordeste 35 Nordeste 0 -- -- 73
2019-04-20 05:00:00 9.8 23 Nordeste 35 Este 0 -- -- 70
2019-04-20 04:00:00 10.2 20 Nordeste 38 Nordeste 0 -- -- 71
2019-04-20 03:00:00 10.1 11 Nordeste 37 Este 0 -- -- 75
2019-04-20 02:00:00 11 27 Este 37 Nordeste 0 -- -- 70
2019-04-20 01:00:00 11.2 26 Nordeste 38 Nordeste 0 -- -- 71
2019-04-20 00:00:00 11.8 23 Nordeste 48 Nordeste 0 -- -- 71
2019-04-19 23:00:00 12.1 32 Nordeste 43 Nordeste 0 -- -- 71
2019-04-19 22:00:00 12 21 Nordeste 28 Nordeste 0 -- -- 73
2019-04-19 21:00:00 11.2 14 Nordeste 28 Nordeste 0 -- -- 82
2019-04-19 20:00:00 11.3 22 Nordeste 40 Nordeste 0 -- -- 80
2019-04-19 19:00:00 11.8 28 Nordeste 49 Este 0 -- -- 79
2019-04-19 18:00:00 12.6 30 Nordeste 41 Nordeste 0 -- -- 73
2019-04-19 17:00:00 14.1 26 Este 41 Este 0 -- -- 61
2019-04-19 16:00:00 14.2 26 Este 41 Este 0 -- -- 60
2019-04-19 15:00:00 13.7 20 Este 28 Nordeste 0 -- -- 64
2019-04-19 14:00:00 13.2 18 Este 31 Este 0 -- -- 65
2019-04-19 13:00:00 12.4 19 Nordeste 28 Nordeste 0 -- -- 74
2019-04-19 12:00:00 11.3 21 Nordeste 30 Nordeste 0 -- -- 80
2019-04-19 11:00:00 10.4 16 Este 25 Este 0 -- -- 87
2019-04-19 10:00:00 9 10 Este 19 Este 0 -- -- 95
2019-04-19 09:00:00 7.8 11 Este 18 Este 0 -- -- 96
2019-04-19 08:00:00 7.4 6 Sudeste 12 Sudeste 0 -- -- 95
2019-04-19 07:00:00 7.8 6 Sur 11 Sur 0.2 -- -- 95
2019-04-19 06:00:00 7.7 6 Sur 9 Sudoeste 0 -- -- 95
2019-04-19 05:00:00 7.8 6 Sudoeste 10 Sudoeste 0 -- -- 95
2019-04-19 04:00:00 8 6 Sudoeste 16 Sudoeste 0.8 -- -- 95
2019-04-19 03:00:00 8.1 9 Oeste 14 Oeste 2 -- -- 94
2019-04-19 02:00:00 8.4 6 Oeste 12 Oeste 2 -- -- 94
2019-04-19 01:00:00 8.5 6 Noroeste 10 Noroeste 0.8 -- -- 93
2019-04-19 00:00:00 8.7 6 Noroeste 12 Noroeste 0.2 -- -- 91
2019-04-18 23:00:00 9.2 8 Norte 12 Norte 0.6 -- -- 88
2019-04-18 22:00:00 9.3 3 Norte 7 Nordeste 0 -- -- 84
2019-04-18 21:00:00 9.5 6 Este 21 Nordeste 0 -- -- 79
2019-04-18 20:00:00 10.8 14 Nordeste 26 Nordeste 0 -- -- 71
2019-04-18 19:00:00 11.6 20 Nordeste 30 Nordeste 0 -- -- 64
2019-04-18 18:00:00 11.6 19 Nordeste 36 Nordeste 0 -- -- 69
2019-04-18 17:00:00 12.6 26 Nordeste 34 Nordeste 0 -- -- 62
2019-04-18 16:00:00 13 15 Nordeste 23 Norte 0 -- -- 62
2019-04-18 15:00:00 13.3 6 Nordeste 16 Nordeste 0 -- -- 59
2019-04-18 14:00:00 11.7 10 Nordeste 18 Nordeste 0 -- -- 65
2019-04-18 13:00:00 11.1 7 Nordeste 14 Nordeste 0 -- -- 72
2019-04-18 12:00:00 10.5 8 Nordeste 12 Norte 0 -- -- 76
2019-04-18 11:00:00 9.5 2 Norte 6 Sudoeste 0 -- -- 85
2019-04-18 10:00:00 7.7 0 Calma 14 Nordeste 0 -- -- 92
2019-04-18 09:00:00 6.7 0 Calma 11 Sudoeste 0 -- -- 93
2019-04-18 08:00:00 6 4 Sur 13 Sudoeste 0 -- -- 93
2019-04-18 07:00:00 5.3 8 Sudoeste 12 Sudoeste 0 -- -- 94
2019-04-18 06:00:00 5.8 9 Sudoeste 16 Sudoeste 0 -- -- 91
2019-04-18 05:00:00 7.3 6 Sudoeste 13 Sudoeste 0 -- -- 91
2019-04-18 04:00:00 7.8 8 Sudoeste 15 Sudoeste 0 -- -- 92
2019-04-18 03:00:00 8.3 16 Sudoeste 30 Sudoeste 0.2 -- -- 89
2019-04-18 02:00:00 8.7 19 Sudoeste 31 Sudoeste 0.2 -- -- 89
2019-04-18 01:00:00 9.1 19 Sudoeste 29 Sudoeste 0 -- -- 84
2019-04-18 00:00:00 9.4 12 Sudoeste 27 Sudoeste 0 -- -- 84
2019-04-17 23:00:00 9.4 13 Sudoeste 37 Sudoeste 0 -- -- 88
2019-04-17 22:00:00 9.8 24 Sudoeste 40 Sudoeste 0 -- -- 85
2019-04-17 21:00:00 12.6 28 Oeste 58 Sur 0 -- -- 73
2019-04-17 20:00:00 16.8 29 Sur 52 Sur 0 -- -- 46
2019-04-17 19:00:00 17.6 33 Sur 48 Sur 0 -- -- 41
2019-04-17 18:00:00 17.7 27 Sudoeste 42 Sudoeste 0 -- -- 41
2019-04-17 17:00:00 19 21 Sudoeste 31 Sur 0 -- -- 37
2019-04-17 16:00:00 19.1 12 Sudoeste 45 Sur 0 -- -- 39
2019-04-17 15:00:00 18.5 13 Sudoeste 23 Sudeste 0 -- -- 36
2019-04-17 14:00:00 18 9 Sudoeste 23 Sudoeste 0 -- -- 43
2019-04-17 13:00:00 17.2 9 Sudoeste 24 Oeste 0 -- -- 46
2019-04-17 12:00:00 16.7 7 Oeste 16 Sudoeste 0 -- -- 52
2019-04-17 11:00:00 14.3 5 Sur 10 Este 0 -- -- 61
2019-04-17 10:00:00 11.2 4 Sur 9 Este 0 -- -- 71
2019-04-17 09:00:00 8.8 6 Este 11 Este 0 -- -- 70
2019-04-17 08:00:00 9.7 9 Sudeste 12 Este 0 -- -- 62
2019-04-17 07:00:00 7.6 5 Este 16 Este 0 -- -- 69
2019-04-17 06:00:00 8.9 2 Sudoeste 6 Sur 0 -- -- 64
2019-04-17 05:00:00 10.2 2 Sudeste 13 Sudeste 0 -- -- 61
2019-04-17 04:00:00 10.9 13 Sudeste 17 Sudeste 0 -- -- 56
2019-04-17 03:00:00 10.1 6 Sudeste 11 Sudeste 0 -- -- 62
2019-04-17 02:00:00 10.8 9 Este 15 Este 0 -- -- 53
2019-04-17 01:00:00 8.3 3 Sudeste 5 Sudeste 0 -- -- 64
2019-04-17 00:00:00 9.1 0 Calma 3 Sudoeste 0 -- -- 62
2019-04-16 23:00:00 10.5 0 Calma 4 Sudoeste 0 -- -- 60
2019-04-16 22:00:00 13 2 Sudoeste 10 Oeste 0 -- -- 57
2019-04-16 21:00:00 15.2 9 Oeste 14 Oeste 0 -- -- 50
2019-04-16 20:00:00 17.3 8 Sudoeste 18 Sudoeste 0 -- -- 42
2019-04-16 19:00:00 18.7 13 Sudoeste 25 Oeste 0 -- -- 33
2019-04-16 18:00:00 19.8 9 Sudoeste 21 Sur 0 -- -- 31
2019-04-16 17:00:00 18.8 12 Sur 25 Sur 0 -- -- 33
2019-04-16 16:00:00 18 10 Sur 22 Sur 0 -- -- 37
2019-04-16 15:00:00 17.2 12 Sur 24 Sur 0 -- -- 35
2019-04-16 14:00:00 15.4 9 Sudeste 20 Sudeste 0 -- -- 48
2019-04-16 13:00:00 14.1 7 Sudeste 20 Sudeste 0 -- -- 54
2019-04-16 12:00:00 11.8 9 Este 19 Este 0 -- -- 66
2019-04-16 11:00:00 9.6 8 Este 14 Este 0 -- -- 76
2019-04-16 10:00:00 7.9 5 Nordeste 10 Nordeste 0 -- -- 87
2019-04-16 09:00:00 4.4 0 Calma 2 Sudoeste 0 -- -- 94
2019-04-16 08:00:00 2.1 2 Sudoeste 5 Sudoeste 0 -- -- 94
2019-04-16 07:00:00 3 6 Sudoeste 11 Sudoeste 0 -- -- 95
2019-04-16 06:00:00 3.4 0 Calma 14 Sudoeste 0 -- -- 93
2019-04-16 05:00:00 3.8 5 Sudoeste 9 Sudoeste 0 -- -- 93
2019-04-16 04:00:00 4.7 5 Sudoeste 14 Sudoeste 0 -- -- 92
2019-04-16 03:00:00 4.3 4 Sudoeste 8 Oeste 0 -- -- 91
2019-04-16 02:00:00 5.3 3 Sur 7 Noroeste 0 -- -- 89
2019-04-16 01:00:00 6.1 2 Oeste 9 Oeste 0 -- -- 90
2019-04-16 00:00:00 7.1 4 Sudoeste 15 Oeste 0 -- -- 88
2019-04-15 23:00:00 8.1 10 Oeste 15 Oeste 0 -- -- 89
2019-04-15 22:00:00 8.9 8 Sudoeste 20 Sudoeste 0 -- -- 85
2019-04-15 21:00:00 10.2 14 Oeste 29 Oeste 0.4 -- -- 81
2019-04-15 20:00:00 11.6 16 Oeste 30 Sudoeste 0 -- -- 78
2019-04-15 19:00:00 11.7 18 Sudoeste 33 Oeste 0 -- -- 77
2019-04-15 18:00:00 11.2 28 Oeste 54 Oeste 0 -- -- 69
2019-04-15 17:00:00 14.4 39 Oeste 55 Oeste 0 -- -- 52
2019-04-15 16:00:00 16.3 32 Oeste 56 Oeste 0 -- -- 56
2019-04-15 15:00:00 19.1 38 Sudoeste 59 Oeste 0 -- -- 43
2019-04-15 14:00:00 19.4 40 Sudoeste 64 Sudoeste 0 -- -- 49
2019-04-15 13:00:00 18.9 41 Sudoeste 58 Sudoeste 0 -- -- 56
2019-04-15 12:00:00 18.4 39 Sudoeste 53 Sudoeste 0 -- -- 59
2019-04-15 11:00:00 16.8 19 Sur 28 Sur 0 -- -- 65
2019-04-15 10:00:00 14 12 Sudeste 17 Sudeste 0 -- -- 78
2019-04-15 09:00:00 13.3 10 Sur 14 Sur 0 -- -- 82
2019-04-15 08:00:00 12.9 10 Sur 15 Sur 0 -- -- 83
2019-04-15 07:00:00 12.1 4 Sur 9 Sur 0 -- -- 85
2019-04-15 06:00:00 11.8 3 Sur 8 Sudoeste 0 -- -- 86
2019-04-15 05:00:00 11.5 4 Sudoeste 7 Sudoeste 0 -- -- 84
2019-04-15 04:00:00 12.1 4 Sudoeste 9 Sudoeste 0 -- -- 82
2019-04-15 03:00:00 12.2 6 Sudoeste 10 Sur 0 -- -- 82
2019-04-15 02:00:00 12.5 4 Sudoeste 9 Sur 0 -- -- 79
2019-04-15 01:00:00 13.8 7 Sur 10 Sudeste 0 -- -- 75
2019-04-15 00:00:00 13.1 2 Sur 4 Oeste 0 -- -- 76
2019-04-14 23:00:00 12.1 0 Calma 4 Sudoeste 0 -- -- 76
2019-04-14 22:00:00 13.8 4 Sudoeste 6 Sudoeste 0 -- -- 71
2019-04-14 21:00:00 16.4 0 Calma 13 Oeste 0 -- -- 64
2019-04-14 20:00:00 18.3 8 Oeste 18 Oeste 0 -- -- 58
2019-04-14 19:00:00 18.3 13 Oeste 30 Sudoeste 0 -- -- 60
2019-04-14 18:00:00 19.6 16 Oeste 24 Oeste 0 -- -- 58
2019-04-14 17:00:00 19.1 11 Oeste 28 Noroeste 0 -- -- 54
2019-04-14 16:00:00 18.8 16 Oeste 27 Oeste 0 -- -- 58
2019-04-14 15:00:00 17.9 13 Oeste 23 Oeste 0 -- -- 60
2019-04-14 14:00:00 18.3 10 Oeste 20 Oeste 0 -- -- 57
2019-04-14 13:00:00 17.3 7 Noroeste 21 Oeste 0 -- -- 58
2019-04-14 12:00:00 15.5 8 Oeste 22 Oeste 0 -- -- 71
2019-04-14 11:00:00 14 12 Oeste 22 Oeste 0 -- -- 78
2019-04-14 10:00:00 11.8 10 Sudoeste 19 Sudoeste 0 -- -- 91
2019-04-14 09:00:00 10.6 13 Sudoeste 17 Sudoeste 0 -- -- 95
2019-04-14 08:00:00 9.5 11 Sudoeste 18 Sudoeste 0 -- -- 95
2019-04-14 07:00:00 9.3 12 Sudoeste 17 Sudoeste 0 -- -- 94
2019-04-14 06:00:00 9 6 Sudoeste 11 Sudoeste 0 -- -- 91
2019-04-14 05:00:00 9.4 6 Sudoeste 12 Sudoeste 0 -- -- 90
2019-04-14 04:00:00 9.3 7 Oeste 9 Oeste 0 -- -- 87
2019-04-14 03:00:00 10.2 4 Sudoeste 12 Oeste 0 -- -- 80
2019-04-14 02:00:00 11 10 Sudoeste 13 Sudoeste 0 -- -- 77
2019-04-14 01:00:00 12.3 9 Oeste 21 Oeste 0 -- -- 68
2019-04-14 00:00:00 13.5 10 Oeste 19 Oeste 0 -- -- 62
2019-04-13 23:00:00 15 13 Oeste 24 Oeste 0 -- -- 55
2019-04-13 22:00:00 15.8 17 Oeste 25 Oeste 0 -- -- 50
2019-04-13 21:00:00 15.5 7 Oeste 19 Oeste 0 -- -- 48
2019-04-13 20:00:00 17.8 12 Oeste 29 Oeste 0 -- -- 39
2019-04-13 19:00:00 19.2 12 Oeste 22 Oeste 0 -- -- 33
2019-04-13 18:00:00 20 10 Sudoeste 23 Sudoeste 0 -- -- 32
2019-04-13 17:00:00 19.3 8 Oeste 23 Oeste 0 -- -- 31
2019-04-13 16:00:00 18.9 14 Sudoeste 23 Oeste 0 -- -- 32
2019-04-13 15:00:00 18.3 13 Oeste 18 Sudoeste 0 -- -- 33
2019-04-13 14:00:00 17.2 6 Sur 14 Noroeste 0 -- -- 36
2019-04-13 13:00:00 16.2 7 Sudeste 15 Sudeste 0 -- -- 37
2019-04-13 12:00:00 15.6 6 Sudoeste 14 Sudoeste 0 -- -- 43
2019-04-13 11:00:00 13.8 4 Oeste 8 Sudoeste 0 -- -- 46
2019-04-13 10:00:00 10.3 0 Calma 5 Oeste 0 -- -- 66
2019-04-13 09:00:00 6.2 0 Calma 4 Sudoeste 0 -- -- 76
2019-04-13 08:00:00 4.3 0 Calma 10 Sudoeste 0 -- -- 78
2019-04-13 07:00:00 5.5 6 Sudoeste 10 Oeste 0 -- -- 73
2019-04-13 06:00:00 5.1 0 Calma 2 Sudoeste 0 -- -- 74
2019-04-13 05:00:00 4.6 0 Calma 3 Sudoeste 0 -- -- 73
2019-04-13 04:00:00 3.8 2 Sur 3 Sur 0 -- -- 72
2019-04-13 03:00:00 4.3 0 Calma 5 Sudoeste 0 -- -- 70
2019-04-13 02:00:00 5.3 0 Calma 3 Sur 0 -- -- 67
2019-04-13 01:00:00 4.9 2 Sudoeste 4 Sudoeste 0 -- -- 69
2019-04-13 00:00:00 6.2 3 Sur 10 Este 0 -- -- 64
2019-04-12 23:00:00 7.7 3 Sudoeste 5 Sudoeste 0 -- -- 58
2019-04-12 22:00:00 8.8 0 Calma 5 Noroeste 0 -- -- 56
2019-04-12 21:00:00 13 4 Noroeste 12 Noroeste 0 -- -- 46
2019-04-12 20:00:00 15.6 8 Noroeste 17 Oeste 0 -- -- 37
2019-04-12 19:00:00 15.8 5 Sudoeste 19 Noroeste 0 -- -- 38
2019-04-12 18:00:00 16.1 8 Norte 20 Oeste 0 -- -- 39
2019-04-12 17:00:00 15.5 7 Norte 27 Norte 0 -- -- 41
2019-04-12 16:00:00 14.9 8 Noroeste 17 Nordeste 0 -- -- 44
2019-04-12 15:00:00 13.9 9 Norte 19 Norte 0 -- -- 46
2019-04-12 14:00:00 13.2 6 Norte 18 Noroeste 0 -- -- 51
2019-04-12 13:00:00 11.1 6 Nordeste 15 Norte 0 -- -- 57
2019-04-12 12:00:00 9.6 6 Nordeste 13 Este 0 -- -- 64
2019-04-12 11:00:00 7.2 9 Este 18 Este 0 -- -- 77
2019-04-12 10:00:00 5.6 8 Nordeste 11 Nordeste 0 -- -- 88
2019-04-12 09:00:00 1.9 0 Calma 7 Este 0 -- -- 93
2019-04-12 08:00:00 -0.2 0 Calma -- -- 0 -- -- 93
2019-04-12 07:00:00 -0.4 0 Calma -- -- 0 -- -- 91
2019-04-12 06:00:00 0.3 0 Calma -- -- 0 -- -- 90
2019-04-12 05:00:00 0.8 0 Calma -- -- 0 -- -- 88
2019-04-12 04:00:00 1.7 0 Calma -- -- 0 -- -- 87
2019-04-12 03:00:00 3 0 Calma 7 Sudeste 0 -- -- 82
2019-04-12 02:00:00 3 5 Nordeste 17 Este 0 -- -- 80
2019-04-12 01:00:00 4.3 15 Nordeste 23 Nordeste 0 -- -- 77
2019-04-12 00:00:00 5.1 3 Sudoeste 4 Sudoeste 0 -- -- 73
2019-04-11 23:00:00 6 2 Sudoeste 6 Nordeste 0 -- -- 72
2019-04-11 22:00:00 6.9 4 Nordeste 7 Norte 0 -- -- 69
2019-04-11 21:00:00 11.4 6 Norte 12 Noroeste 0 -- -- 51
2019-04-11 20:00:00 13.1 8 Noroeste 14 Norte 0 -- -- 41
2019-04-11 19:00:00 12.2 12 Nordeste 20 Nordeste 0 -- -- 43
2019-04-11 18:00:00 12.9 13 Norte 23 Nordeste 0 -- -- 39
2019-04-11 17:00:00 13.8 13 Noroeste 24 Noroeste 0 -- -- 38
2019-04-11 16:00:00 13.2 9 Noroeste 23 Noroeste 0 -- -- 46
2019-04-11 15:00:00 12.8 12 Noroeste 24 Noroeste 0 -- -- 48
2019-04-11 14:00:00 10.7 6 Noroeste 14 Nordeste 0 -- -- 59
2019-04-11 13:00:00 9.9 4 Norte 10 Noroeste 0 -- -- 64
2019-04-11 12:00:00 8.6 3 Este 10 Noroeste 0 -- -- 71
2019-04-11 11:00:00 7.8 3 Este 10 Este 0 -- -- 77
2019-04-11 10:00:00 6.3 2 Nordeste 5 Este 0 -- -- 93
2019-04-11 09:00:00 2.8 0 Calma 3 Sudoeste 0 -- -- 95
2019-04-11 08:00:00 0.6 0 Calma 3 Sudoeste 0 -- -- 94
2019-04-11 07:00:00 1.3 0 Calma 3 Sudoeste 0 -- -- 94
2019-04-11 06:00:00 1.9 3 Sudoeste 9 Nordeste 0 -- -- 94
2019-04-11 05:00:00 2.8 9 Nordeste 10 Nordeste 0 -- -- 94
2019-04-11 04:00:00 1.8 5 Nordeste 10 Nordeste 0 -- -- 92
2019-04-11 03:00:00 4.6 10 Nordeste 15 Nordeste 0 -- -- 89
2019-04-11 02:00:00 5.7 11 Nordeste 17 Nordeste 0 -- -- 89
2019-04-11 01:00:00 5.5 12 Nordeste 15 Nordeste 0 -- -- 89
2019-04-11 00:00:00 6.4 11 Nordeste 14 Norte 0 -- -- 87
2019-04-10 23:00:00 6.2 2 Oeste 9 Sudoeste 0 -- -- 89
2019-04-10 22:00:00 6.3 3 Sudoeste 13 Sudoeste 0 -- -- 88
2019-04-10 21:00:00 7.4 5 Sudoeste 23 Sudoeste 0.4 -- -- 84
2019-04-10 20:00:00 8.5 19 Sudoeste 26 Sudoeste 0 -- -- 79
2019-04-10 19:00:00 10.4 7 Oeste 24 Noroeste 0 -- -- 70
2019-04-10 18:00:00 10 16 Noroeste 27 Noroeste 0 -- -- 72
2019-04-10 17:00:00 8.6 19 Noroeste 34 Noroeste 0.2 -- -- 77
2019-04-10 16:00:00 8.7 13 Oeste 46 Noroeste 0 -- -- 79
2019-04-10 15:00:00 9.8 10 Noroeste 40 Noroeste 2.8 -- -- 75
2019-04-10 14:00:00 9.6 24 Noroeste 37 Noroeste 0.4 -- -- 71
2019-04-10 13:00:00 10.5 18 Oeste 33 Oeste 0 -- -- 61
2019-04-10 12:00:00 9 21 Oeste 38 Oeste 0 -- -- 69
2019-04-10 11:00:00 7.2 23 Oeste 40 Oeste 0 -- -- 76
2019-04-10 10:00:00 5.6 20 Oeste 31 Oeste 0 -- -- 85
2019-04-10 09:00:00 5 18 Oeste 30 Oeste 0 -- -- 90
2019-04-10 08:00:00 4 18 Oeste 31 Sudoeste 0 -- -- 93
2019-04-10 07:00:00 4.1 10 Sudoeste 24 Sudoeste 0 -- -- 93
2019-04-10 06:00:00 4.9 17 Sudoeste 25 Sudoeste 0 -- -- 93
2019-04-10 05:00:00 4.5 17 Sudoeste 26 Oeste 0 -- -- 93
2019-04-10 04:00:00 3.9 18 Sudoeste 27 Sudoeste 0 -- -- 93
2019-04-10 03:00:00 4 18 Sudoeste 26 Sudoeste 0 -- -- 92
2019-04-10 02:00:00 4.1 21 Oeste 28 Oeste 0 -- -- 91
2019-04-10 01:00:00 5 19 Oeste 28 Oeste 0 -- -- 89
2019-04-10 00:00:00 5.2 19 Oeste 31 Oeste 0 -- -- 88
2019-04-09 23:00:00 6.2 18 Oeste 36 Oeste 0 -- -- 86
2019-04-09 22:00:00 6.6 21 Oeste 33 Oeste 0 -- -- 84
2019-04-09 21:00:00 6.3 12 Oeste 54 Oeste 0.6 -- -- 84
2019-04-09 20:00:00 9 26 Oeste 39 Oeste 0 -- -- 64
2019-04-09 19:00:00 9.9 21 Oeste 53 Oeste 0 -- -- 60
2019-04-09 18:00:00 11 31 Oeste 51 Oeste 0 -- -- 51
2019-04-09 17:00:00 11.1 24 Oeste 39 Oeste 0 -- -- 60
2019-04-09 16:00:00 10.4 23 Oeste 45 Oeste 0 -- -- 57
2019-04-09 15:00:00 10.1 25 Oeste 47 Sudoeste 0 -- -- 58
2019-04-09 14:00:00 8 28 Oeste 46 Oeste 0 -- -- 74
2019-04-09 13:00:00 5.7 32 Oeste 51 Sudoeste 0 -- -- 85
2019-04-09 12:00:00 4.8 35 Oeste 50 Sudoeste 0.4 -- -- 88
2019-04-09 11:00:00 5.4 28 Sudoeste 54 Sudoeste 0.4 -- -- 89
2019-04-09 10:00:00 6.1 27 Sudoeste 38 Sudoeste 0 -- -- 84
2019-04-09 09:00:00 5.2 20 Sudoeste 32 Sudoeste 0 -- -- 91
2019-04-09 08:00:00 5 20 Sudoeste 31 Sudoeste 0 -- -- 90
2019-04-09 07:00:00 4.9 19 Sudoeste 32 Sudoeste 0 -- -- 89
2019-04-09 06:00:00 5.1 23 Sudoeste 30 Sudoeste 0 -- -- 88
2019-04-09 05:00:00 4.7 14 Sudoeste 28 Sudoeste 0 -- -- 90
2019-04-09 04:00:00 3.8 19 Sudoeste 27 Sudoeste 0 -- -- 92
2019-04-09 03:00:00 4 11 Sudoeste 20 Oeste 0 -- -- 91
2019-04-09 02:00:00 4.3 10 Sudoeste 27 Sudoeste 0 -- -- 89
2019-04-09 01:00:00 4.5 16 Sudoeste 24 Sudoeste 0 -- -- 90
2019-04-09 00:00:00 4.8 15 Sudoeste 19 Sudoeste 0 -- -- 88
2019-04-08 23:00:00 4.5 10 Sudoeste 14 Sudoeste 0 -- -- 87
2019-04-08 22:00:00 6 7 Sudoeste 22 Oeste 0 -- -- 80
2019-04-08 21:00:00 7.8 18 Oeste 31 Oeste 0 -- -- 69
2019-04-08 20:00:00 9.5 19 Oeste 32 Oeste 0 -- -- 65
2019-04-08 19:00:00 8.9 17 Oeste 55 Oeste 0 -- -- 68
2019-04-08 18:00:00 11.9 24 Oeste 34 Oeste 0 -- -- 51
2019-04-08 17:00:00 12 22 Oeste 36 Oeste 0 -- -- 61
2019-04-08 16:00:00 12.1 17 Oeste 39 Sudoeste 0 -- -- 54
2019-04-08 15:00:00 12.1 21 Sudoeste 34 Oeste 0 -- -- 54
2019-04-08 14:00:00 10.5 16 Oeste 35 Oeste 0 -- -- 64
2019-04-08 13:00:00 9.7 17 Oeste 34 Oeste 0 -- -- 73
2019-04-08 12:00:00 8.3 15 Oeste 30 Oeste 0.2 -- -- 79
2019-04-08 11:00:00 8 18 Oeste 31 Oeste 0 -- -- 79
2019-04-08 10:00:00 7.4 18 Oeste 26 Sudoeste 0 -- -- 89
2019-04-08 09:00:00 6.7 14 Oeste 29 Oeste 0 -- -- 91
2019-04-08 08:00:00 6.9 24 Oeste 39 Oeste 0 -- -- 89
2019-04-08 07:00:00 7.1 14 Oeste 26 Oeste 0 -- -- 90
2019-04-08 06:00:00 7.9 17 Oeste 39 Sudoeste 0 -- -- 91
2019-04-08 05:00:00 7.6 16 Sudoeste 27 Sudoeste 0.2 -- -- 94
2019-04-08 04:00:00 7.6 15 Sudoeste 27 Sudoeste 0.2 -- -- 91
2019-04-08 03:00:00 7.4 15 Sudoeste 22 Sudoeste 0 -- -- 91
2019-04-08 02:00:00 7.1 12 Sudoeste 18 Sudoeste 0 -- -- 91
2019-04-08 01:00:00 7.8 15 Sudoeste 31 Sudoeste 0 -- -- 92
2019-04-08 00:00:00 7.9 18 Sudoeste 30 Sudoeste 0 -- -- 93
2019-04-07 23:00:00 7.6 23 Sudoeste 35 Sudoeste 0.2 -- -- 94
2019-04-07 22:00:00 7.3 24 Sur 32 Sur 0.2 -- -- 94
2019-04-07 21:00:00 6.9 18 Sur 24 Sur 0.2 -- -- 93
2019-04-07 20:00:00 6.9 16 Sur 25 Sur 0 -- -- 88
2019-04-07 19:00:00 7 22 Sur 27 Sur 0.6 -- -- 87
2019-04-07 18:00:00 7.3 13 Sudoeste 19 Sur 0.6 -- -- 80
2019-04-07 17:00:00 6.8 16 Sudoeste 40 Sudoeste 0.6 -- -- 78
2019-04-07 16:00:00 8.8 22 Sudoeste 33 Sudoeste 0 -- -- 70
2019-04-07 15:00:00 9.4 21 Sudoeste 36 Sudoeste 0 -- -- 63
2019-04-07 14:00:00 9.6 19 Sudoeste 33 Sudoeste 0 -- -- 58
2019-04-07 13:00:00 8.3 19 Oeste 31 Oeste 0 -- -- 64
2019-04-07 12:00:00 7.4 16 Oeste 30 Sudoeste 0 -- -- 65
2019-04-07 11:00:00 5.8 19 Oeste 34 Oeste 0 -- -- 74
2019-04-07 10:00:00 4.5 20 Oeste 30 Oeste 0 -- -- 86
2019-04-07 09:00:00 3 15 Oeste 23 Oeste 0 -- -- 92
2019-04-07 08:00:00 1.9 10 Oeste 26 Sudoeste 0 -- -- 93
2019-04-07 07:00:00 2.2 22 Sudoeste 35 Sudoeste 0 -- -- 93
2019-04-07 06:00:00 2.1 18 Oeste 30 Oeste 0 -- -- 91
2019-04-07 05:00:00 2.6 19 Oeste 31 Oeste 0 -- -- 90
2019-04-07 04:00:00 2.8 21 Oeste 32 Oeste 0 -- -- 90
2019-04-07 03:00:00 3.4 19 Oeste 31 Oeste 0 -- -- 90
2019-04-07 02:00:00 3.3 17 Oeste 29 Oeste 0.2 -- -- 92
2019-04-07 01:00:00 3.6 19 Oeste 29 Sudoeste 0 -- -- 89
2019-04-07 00:00:00 3.8 16 Sudoeste 33 Oeste 0 -- -- 89
2019-04-06 23:00:00 3 22 Sudoeste 35 Oeste 0 -- -- 90
2019-04-06 22:00:00 3.7 22 Sudoeste 38 Oeste 0 -- -- 83
2019-04-06 21:00:00 5.7 27 Oeste 52 Oeste 0 -- -- 70
2019-04-06 20:00:00 6.8 31 Oeste 52 Oeste 0 -- -- 64
2019-04-06 19:00:00 8.2 33 Oeste 57 Oeste 0 -- -- 57
2019-04-06 18:00:00 8 33 Oeste 59 Oeste 0 -- -- 58
2019-04-06 17:00:00 7.2 35 Oeste 56 Oeste 0 -- -- 69
2019-04-06 16:00:00 6.1 41 Oeste 63 Sudoeste 0 -- -- 80
2019-04-06 15:00:00 6 43 Oeste 59 Oeste 0 -- -- 77
2019-04-06 14:00:00 5.7 38 Sudoeste 62 Sudoeste 0.4 -- -- 87
2019-04-06 13:00:00 4.9 39 Sudoeste 62 Sudoeste 0 -- -- 86
2019-04-06 12:00:00 3.6 40 Sudoeste 66 Sudoeste 0.2 -- -- 87
2019-04-06 11:00:00 3.9 35 Sudoeste 55 Sudoeste 0 -- -- 87
2019-04-06 10:00:00 3.9 31 Sudoeste 42 Sudoeste 0 -- -- 86
2019-04-06 09:00:00 2.5 25 Sudoeste 44 Sudoeste 0 -- -- 91
2019-04-06 08:00:00 2.6 27 Sudoeste 43 Sudoeste 0 -- -- 90
2019-04-06 07:00:00 2.7 23 Sudoeste 41 Sudoeste 0 -- -- 90
2019-04-06 06:00:00 2.7 24 Sudoeste 34 Sudoeste 0 -- -- 91
2019-04-06 05:00:00 2.4 21 Sudoeste 36 Sudoeste 0 -- -- 90
2019-04-06 04:00:00 2.6 23 Sudoeste 35 Oeste 0 -- -- 90
2019-04-06 03:00:00 2.8 23 Sudoeste 39 Oeste 0 -- -- 89
2019-04-06 02:00:00 2.7 25 Sudoeste 38 Oeste 0 -- -- 89
2019-04-06 01:00:00 2.7 23 Oeste 33 Oeste 0 -- -- 87
2019-04-06 00:00:00 3.2 21 Oeste 28 Oeste 0 -- -- 89
2019-04-05 23:00:00 2.4 18 Oeste 30 Sudoeste 0 -- -- 89
2019-04-05 22:00:00 2.3 18 Sudoeste 42 Sudoeste 0 -- -- 89
2019-04-05 21:00:00 4.2 21 Oeste 39 Oeste 0 -- -- 80
2019-04-05 20:00:00 4.6 24 Oeste 48 Oeste 0 -- -- 76
2019-04-05 19:00:00 8.5 26 Oeste 37 Oeste 0 -- -- 51
2019-04-05 18:00:00 8.9 26 Oeste 37 Oeste 0 -- -- 49
2019-04-05 17:00:00 8.4 21 Oeste 36 Oeste 0 -- -- 52
2019-04-05 16:00:00 7.1 21 Oeste 30 Oeste 0.2 -- -- 63
2019-04-05 15:00:00 3.9 20 Oeste 34 Oeste 1 -- -- 83
2019-04-05 14:00:00 6.5 14 Oeste 26 Oeste 0 -- -- 65
2019-04-05 13:00:00 6.3 16 Oeste 31 Oeste 0 -- -- 68
2019-04-05 12:00:00 5.2 16 Sudoeste 22 Sudoeste 0 -- -- 74
2019-04-05 11:00:00 3.8 14 Oeste 23 Oeste 0 -- -- 83
2019-04-05 10:00:00 3.2 17 Sudoeste 28 Sudoeste 0 -- -- 86
2019-04-05 09:00:00 2.5 11 Oeste 22 Sudoeste 0 -- -- 94
2019-04-05 08:00:00 2.1 16 Sudoeste 26 Sudoeste 0.2 -- -- 94
2019-04-05 07:00:00 2.3 17 Oeste 32 Oeste 1.2 -- -- 91
2019-04-05 06:00:00 3.7 19 Oeste 33 Sudoeste 0.2 -- -- 91
2019-04-05 05:00:00 3.9 20 Sudoeste 32 Sudoeste 0 -- -- 90
2019-04-05 04:00:00 4 24 Sudoeste 42 Sur 0 -- -- 89
2019-04-05 03:00:00 3.9 24 Sur 35 Sudoeste 0.2 -- -- 91
2019-04-05 02:00:00 3.8 23 Sur 36 Sudoeste 0 -- -- 89
2019-04-05 01:00:00 4.2 24 Sur 35 Sur 0 -- -- 87
2019-04-05 00:00:00 4.3 18 Sudoeste 28 Sudoeste 0 -- -- 88
2019-04-04 23:00:00 4.5 13 Sudoeste 21 Sudoeste 0 -- -- 86
2019-04-04 22:00:00 4.7 17 Sudoeste 26 Sudoeste 0.6 -- -- 85
2019-04-04 21:00:00 5.1 14 Sudoeste 24 Oeste 0.4 -- -- 80
2019-04-04 20:00:00 6 18 Oeste 43 Oeste 0 -- -- 70
2019-04-04 19:00:00 8.3 21 Oeste 42 Oeste 0 -- -- 48
2019-04-04 18:00:00 9.7 23 Oeste 39 Sudoeste 0 -- -- 39
2019-04-04 17:00:00 11.1 26 Sudoeste 37 Oeste 0 -- -- 36
2019-04-04 16:00:00 9.3 20 Sudoeste 38 Sudoeste 0 -- -- 41
2019-04-04 15:00:00 9.1 23 Sudoeste 39 Sudoeste 0 -- -- 42
2019-04-04 14:00:00 8.2 20 Sudoeste 34 Sudoeste 0 -- -- 42
2019-04-04 13:00:00 7.6 13 Sudoeste 25 Sudoeste 0 -- -- 47
2019-04-04 12:00:00 6 14 Sudoeste 21 Sudoeste 0 -- -- 53
2019-04-04 11:00:00 4.1 10 Oeste 20 Oeste 0 -- -- 62
2019-04-04 10:00:00 1.6 13 Sudoeste 21 Sudoeste 0 -- -- 73
2019-04-04 09:00:00 -0.6 11 Oeste 17 Oeste 0 -- -- 81
2019-04-04 08:00:00 -2.3 8 Oeste 14 Oeste 0 -- -- 80
2019-04-04 07:00:00 -2.1 0 Calma 7 Oeste 0 -- -- 81
2019-04-04 06:00:00 -1.2 5 Oeste 14 Noroeste 0 -- -- 78
2019-04-04 05:00:00 -1.1 0 Calma 8 Noroeste 0 -- -- 74
2019-04-04 04:00:00 -0.4 6 Noroeste 13 Oeste 0 -- -- 72
2019-04-04 03:00:00 0.5 8 Noroeste 14 Noroeste 0 -- -- 66
2019-04-04 02:00:00 0.7 9 Noroeste 13 Noroeste 0 -- -- 67
2019-04-04 01:00:00 1.1 5 Noroeste 11 Noroeste 0 -- -- 66
2019-04-04 00:00:00 2.2 9 Noroeste 18 Noroeste 0 -- -- 60
2019-04-03 23:00:00 3.7 15 Noroeste 21 Noroeste 0 -- -- 52
2019-04-03 22:00:00 5.4 15 Noroeste 38 Norte 0 -- -- 47
2019-04-03 21:00:00 7.6 24 Norte 36 Norte 0 -- -- 39
2019-04-03 20:00:00 9.7 20 Noroeste 42 Noroeste 0 -- -- 39
2019-04-03 19:00:00 10.9 24 Noroeste 41 Noroeste 0 -- -- 38
2019-04-03 18:00:00 12 23 Noroeste 33 Noroeste 0 -- -- 35
2019-04-03 17:00:00 11.4 18 Noroeste 31 Noroeste 0 -- -- 36
2019-04-03 16:00:00 11.1 15 Noroeste 32 Oeste 0 -- -- 37
2019-04-03 15:00:00 10 12 Noroeste 30 Noroeste 0 -- -- 43
2019-04-03 14:00:00 10.1 13 Noroeste 37 Noroeste 0 -- -- 45
2019-04-03 13:00:00 9 14 Noroeste 26 Norte 0 -- -- 51
2019-04-03 12:00:00 8.5 16 Norte 28 Norte 0 -- -- 53
2019-04-03 11:00:00 5.8 11 Noroeste 22 Noroeste 0 -- -- 68
2019-04-03 10:00:00 4.8 15 Oeste 28 Oeste 0 -- -- 73
2019-04-03 09:00:00 3.7 16 Oeste 22 Oeste 0 -- -- 82
2019-04-03 08:00:00 3.5 11 Oeste 15 Sudoeste 0 -- -- 87
2019-04-03 07:00:00 2 6 Sudoeste 11 Sudoeste 0 -- -- 83
2019-04-03 06:00:00 3.1 3 Sudoeste 6 Sudoeste 0 -- -- 80
2019-04-03 05:00:00 3.9 4 Oeste 11 Noroeste 0 -- -- 75
2019-04-03 04:00:00 4.5 3 Sudoeste 9 Oeste 0 -- -- 70
2019-04-03 03:00:00 5.1 0 Calma 4 Oeste 0 -- -- 66
2019-04-03 02:00:00 6.2 4 Noroeste 12 Noroeste 0 -- -- 61
2019-04-03 01:00:00 7 6 Norte 19 Noroeste 0 -- -- 58
2019-04-03 00:00:00 8.9 13 Noroeste 18 Noroeste 0 -- -- 48
2019-04-02 23:00:00 9.4 8 Oeste 21 Oeste 0 -- -- 45
2019-04-02 22:00:00 11 12 Oeste 21 Oeste 0 -- -- 40
2019-04-02 21:00:00 13 15 Oeste 31 Oeste 0 -- -- 33
2019-04-02 20:00:00 15.6 20 Oeste 34 Oeste 0 -- -- 32
2019-04-02 19:00:00 16.4 22 Oeste 37 Oeste 0 -- -- 34
2019-04-02 18:00:00 17.3 18 Oeste 33 Noroeste 0 -- -- 27
2019-04-02 17:00:00 17.3 23 Oeste 37 Oeste 0 -- -- 29
2019-04-02 16:00:00 16.9 20 Oeste 33 Oeste 0 -- -- 34
2019-04-02 15:00:00 16.4 18 Oeste 33 Oeste 0 -- -- 39
2019-04-02 14:00:00 15.8 15 Noroeste 25 Oeste 0 -- -- 42
2019-04-02 13:00:00 14 9 Noroeste 26 Oeste 0 -- -- 59
2019-04-02 12:00:00 11.9 11 Noroeste 21 Noroeste 0 -- -- 68
2019-04-02 11:00:00 10 11 Oeste 15 Oeste 0 -- -- 75
2019-04-02 10:00:00 8.8 10 Oeste 14 Oeste 0 -- -- 79
2019-04-02 09:00:00 7.5 8 Sudoeste 17 Sudoeste 0 -- -- 85
2019-04-02 08:00:00 7.5 11 Sudoeste 16 Sudoeste 0 -- -- 83
2019-04-02 07:00:00 7 9 Sudoeste 15 Oeste 0 -- -- 83
2019-04-02 06:00:00 6.4 6 Sudoeste 9 Sudoeste 0 -- -- 85
2019-04-02 05:00:00 5.4 7 Sudoeste 12 Sudoeste 0 -- -- 84
2019-04-02 04:00:00 5.5 6 Sudoeste 9 Sudoeste 0 -- -- 82
2019-04-02 03:00:00 6.5 5 Sudoeste 13 Sudoeste 0 -- -- 80
2019-04-02 02:00:00 7.4 7 Sudoeste 14 Oeste 0 -- -- 77
2019-04-02 01:00:00 8.3 9 Oeste 15 Oeste 0 -- -- 74
2019-04-02 00:00:00 8.2 8 Sudoeste 12 Sudoeste 0 -- -- 72
2019-04-01 23:00:00 9.6 10 Oeste 23 Sudoeste 0 -- -- 66
2019-04-01 22:00:00 10.5 8 Sudoeste 17 Noroeste 0 -- -- 62
2019-04-01 21:00:00 13.6 0 Calma 7 Oeste 0 -- -- 48
2019-04-01 20:00:00 15.9 3 Sudoeste 7 Sudoeste 0 -- -- 40
2019-04-01 19:00:00 15.9 5 Oeste 13 Noroeste 0 -- -- 40
2019-04-01 18:00:00 17.1 6 Oeste 19 Noroeste 0 -- -- 36
2019-04-01 17:00:00 16.3 7 Nordeste 17 Norte 0 -- -- 38
2019-04-01 16:00:00 16.8 5 Noroeste 15 Sur 0 -- -- 38
2019-04-01 15:00:00 15.6 6 Noroeste 15 Noroeste 0 -- -- 45
2019-04-01 14:00:00 13.8 9 Nordeste 17 Nordeste 0 -- -- 53
2019-04-01 13:00:00 12.4 8 Nordeste 15 Este 0 -- -- 58
2019-04-01 12:00:00 10.6 9 Nordeste 15 Nordeste 0 -- -- 69
2019-04-01 11:00:00 8.3 7 Nordeste 12 Nordeste 0 -- -- 81
2019-04-01 10:00:00 5.8 8 Norte 12 Norte 0 -- -- 89
2019-04-01 09:00:00 3.7 0 Calma 9 Norte 0 -- -- 93
2019-04-01 08:00:00 2.7 8 Norte 9 Nordeste 0 -- -- 92
2019-04-01 07:00:00 2.4 0 Calma 4 Sudoeste 0 -- -- 90
2019-04-01 06:00:00 3.1 0 Calma 8 Este 0 -- -- 90
2019-04-01 05:00:00 4.2 0 Calma 19 Este 0 -- -- 87
2019-04-01 04:00:00 4.9 9 Nordeste 15 Nordeste 0 -- -- 88
2019-04-01 03:00:00 6 2 Sudeste 17 Este 0 -- -- 83
2019-04-01 02:00:00 6.7 10 Este 22 Este 0 -- -- 83
2019-04-01 01:00:00 7.5 9 Este 18 Este 0 -- -- 82
2019-04-01 00:00:00 8 11 Este 17 Este 0 -- -- 80
2019-03-31 23:00:00 9.6 8 Este 19 Nordeste 0 -- -- 72
2019-03-31 22:00:00 10.4 13 Nordeste 17 Nordeste 0 -- -- 75
2019-03-31 21:00:00 12.9 6 Nordeste 17 Nordeste 0 -- -- 70
2019-03-31 20:00:00 14 4 Este 27 Sudoeste 0.8 -- -- 53
2019-03-31 19:00:00 13.1 11 Noroeste 32 Sudeste 2.4 -- -- 53
2019-03-31 18:00:00 17.6 13 Norte 24 Nordeste 0 -- -- 32
2019-03-31 17:00:00 18.7 10 Nordeste 26 Nordeste 0 -- -- 27
2019-03-31 16:00:00 18.1 14 Norte 26 Norte 0 -- -- 27
2019-03-31 15:00:00 17.7 16 Norte 28 Nordeste 0 -- -- 31
2019-03-31 14:00:00 16.3 13 Nordeste 24 Nordeste 0 -- -- 36
2019-03-31 13:00:00 14.4 9 Nordeste 21 Nordeste 0 -- -- 43
2019-03-31 12:00:00 11.8 7 Nordeste 13 Nordeste 0 -- -- 50
2019-03-31 11:00:00 8.5 8 Nordeste 14 Norte 0 -- -- 53
2019-03-31 10:00:00 5.9 7 Norte 10 Norte 0 -- -- 61
2019-03-31 09:00:00 3 0 Calma 9 Norte 0 -- -- 71
2019-03-31 08:00:00 1.8 8 Norte 9 Norte 0 -- -- 68
2019-03-31 07:00:00 1.9 2 Sur 5 Sur 0 -- -- 64
2019-03-31 06:00:00 3.1 0 Calma 8 Sudeste 0 -- -- 61
2019-03-31 05:00:00 4.2 6 Sudeste 25 Este 0 -- -- 57
2019-03-31 03:00:00 4.6 3 Norte 6 Norte 0 -- -- 54
2019-03-31 01:00:00 5.9 4 Sudoeste 5 Sudoeste 0 -- -- 51
2019-03-31 00:00:00 5.2 0 Calma 6 Noroeste 0 -- -- 53
2019-03-30 23:00:00 7.5 3 Este 20 Sudeste 0 -- -- 45
2019-03-30 22:00:00 7.4 4 Nordeste 10 Norte 0 -- -- 45
2019-03-30 21:00:00 10 7 Norte 9 Norte 0 -- -- 41
2019-03-30 20:00:00 11.8 9 Norte 10 Nordeste 0 -- -- 37
2019-03-30 19:00:00 16.4 8 Nordeste 15 Nordeste 0 -- -- 28
2019-03-30 18:00:00 16.8 9 Nordeste 25 Nordeste 0 -- -- 26
2019-03-30 17:00:00 18.1 5 Sudeste 21 Este 0 -- -- 25
2019-03-30 16:00:00 18.6 6 Sur 15 Sudeste 0 -- -- 25
2019-03-30 15:00:00 17.4 8 Este 18 Sudeste 0 -- -- 28
2019-03-30 14:00:00 16.4 9 Norte 17 Nordeste 0 -- -- 29
2019-03-30 13:00:00 16.6 8 Este 19 Nordeste 0 -- -- 31
2019-03-30 12:00:00 15.9 4 Sur 15 Nordeste 0 -- -- 32
2019-03-30 11:00:00 15.5 9 Norte 18 Norte 0 -- -- 32
2019-03-30 10:00:00 14.1 4 Sudoeste 9 Sudoeste 0 -- -- 35
2019-03-30 09:00:00 11.8 4 Sudoeste 7 Sur 0 -- -- 43
2019-03-30 08:00:00 8.4 2 Sur 7 Sudeste 0 -- -- 48
2019-03-30 07:00:00 7.3 7 Sudeste 10 Sudeste 0 -- -- 48
2019-03-30 06:00:00 7.5 2 Sur 13 Sur 0 -- -- 48
2019-03-30 05:00:00 5.6 4 Sudoeste 9 Sur 0 -- -- 58
2019-03-30 04:00:00 4.9 4 Sudoeste 8 Sur 0 -- -- 58
2019-03-30 03:00:00 5.7 6 Sudoeste 12 Sur 0 -- -- 54
2019-03-30 02:00:00 6.4 5 Sudoeste 17 Sudeste 0 -- -- 52
2019-03-30 01:00:00 6.9 5 Sudoeste 16 Sur 0 -- -- 50
2019-03-30 00:00:00 7.3 4 Sudoeste 15 Sur 0 -- -- 47
2019-03-29 23:00:00 8.7 12 Sur 17 Sur 0 -- -- 40
2019-03-29 22:00:00 10.2 13 Sur 21 Sudeste 0 -- -- 34
2019-03-29 21:00:00 11.6 13 Sur 17 Sur 0 -- -- 32
2019-03-29 20:00:00 15.1 7 Sudeste 12 Sudeste 0 -- -- 27
2019-03-29 19:00:00 17.2 8 Noroeste 17 Noroeste 0 -- -- 30
2019-03-29 18:00:00 18.2 14 Noroeste 22 Noroeste 0 -- -- 29
2019-03-29 17:00:00 18.6 10 Oeste 23 Noroeste 0 -- -- 27
2019-03-29 16:00:00 19.7 13 Noroeste 27 Noroeste 0 -- -- 26
2019-03-29 15:00:00 18.4 9 Noroeste 19 Noroeste 0 -- -- 24
2019-03-29 14:00:00 17.4 6 Oeste 18 Sudoeste 0 -- -- 25
2019-03-29 13:00:00 16.5 7 Oeste 17 Sudoeste 0 -- -- 27
2019-03-29 12:00:00 15.6 5 Noroeste 16 Norte 0 -- -- 35
2019-03-29 11:00:00 13 6 Nordeste 13 Norte 0 -- -- 47
2019-03-29 10:00:00 9.8 2 Nordeste 5 Este 0 -- -- 57
2019-03-29 09:00:00 5.5 0 Calma -- -- 0 -- -- 73
2019-03-29 08:00:00 1.6 0 Calma -- -- 0 -- -- 84
2019-03-29 07:00:00 -0.4 0 Calma -- -- 0 -- -- 82
2019-03-29 06:00:00 0.4 0 Calma -- -- 0 -- -- 79
2019-03-29 05:00:00 0.9 0 Calma -- -- 0 -- -- 77
2019-03-29 04:00:00 1.9 0 Calma -- -- 0 -- -- 73
2019-03-29 03:00:00 2.1 0 Calma -- -- 0 -- -- 72
2019-03-29 02:00:00 2.7 0 Calma -- -- 0 -- -- 70
2019-03-29 01:00:00 4.3 0 Calma -- -- 0 -- -- 63
2019-03-29 00:00:00 5.6 0 Calma 16 Nordeste 0 -- -- 58
2019-03-28 23:00:00 6.3 12 Nordeste 14 Nordeste 0 -- -- 57
2019-03-28 22:00:00 8.8 10 Nordeste 17 Nordeste 0 -- -- 48
2019-03-28 21:00:00 9.2 11 Nordeste 14 Nordeste 0 -- -- 46
2019-03-28 20:00:00 12.1 11 Nordeste 16 Norte 0 -- -- 37
2019-03-28 19:00:00 15.9 13 Nordeste 22 Norte 0 -- -- 28
2019-03-28 18:00:00 16.9 14 Nordeste 32 Nordeste 0 -- -- 26
2019-03-28 17:00:00 17.3 13 Norte 24 Norte 0 -- -- 25
2019-03-28 16:00:00 16.8 13 Este 28 Nordeste 0 -- -- 24
2019-03-28 15:00:00 16.3 14 Nordeste 27 Nordeste 0 -- -- 25
2019-03-28 14:00:00 15.2 14 Nordeste 27 Norte 0 -- -- 28
2019-03-28 13:00:00 13.5 14 Nordeste 23 Nordeste 0 -- -- 36
2019-03-28 12:00:00 11.1 12 Nordeste 24 Nordeste 0 -- -- 42
2019-03-28 11:00:00 8.8 17 Nordeste 25 Norte 0 -- -- 49
2019-03-28 10:00:00 6.2 15 Nordeste 21 Nordeste 0 -- -- 52
2019-03-28 09:00:00 4.1 10 Nordeste 25 Nordeste 0 -- -- 57
2019-03-28 08:00:00 1 0 Calma 10 Nordeste 0 -- -- 59
2019-03-28 07:00:00 0.2 6 Nordeste 15 Nordeste 0 -- -- 59
2019-03-28 06:00:00 -0.2 11 Nordeste 15 Nordeste 0 -- -- 55
2019-03-28 05:00:00 -0.2 8 Nordeste 12 Nordeste 0 -- -- 54
2019-03-28 04:00:00 1.4 5 Norte 14 Nordeste 0 -- -- 47
2019-03-28 03:00:00 2.9 12 Nordeste 17 Nordeste 0 -- -- 42
2019-03-28 02:00:00 4.2 11 Nordeste 24 Este 0 -- -- 42
2019-03-28 01:00:00 4.4 14 Nordeste 18 Nordeste 0 -- -- 43
2019-03-28 00:00:00 7.3 14 Nordeste 34 Nordeste 0 -- -- 36
2019-03-27 23:00:00 7.7 19 Nordeste 30 Nordeste 0 -- -- 34
2019-03-27 22:00:00 8.9 19 Nordeste 28 Nordeste 0 -- -- 32
2019-03-27 21:00:00 11 20 Nordeste 32 Nordeste 0 -- -- 28
2019-03-27 20:00:00 13.2 23 Nordeste 32 Nordeste 0 -- -- 22
2019-03-27 19:00:00 16.2 22 Nordeste 32 Nordeste 0 -- -- 22
2019-03-27 18:00:00 17.6 22 Nordeste 32 Nordeste 0 -- -- 20
2019-03-27 17:00:00 18.1 19 Nordeste 36 Nordeste 0 -- -- 20
2019-03-27 16:00:00 17.5 19 Nordeste 36 Nordeste 0 -- -- 21
2019-03-27 15:00:00 16.4 18 Nordeste 33 Nordeste 0 -- -- 24
2019-03-27 14:00:00 15.5 16 Nordeste 33 Norte 0 -- -- 26
2019-03-27 13:00:00 13.8 16 Nordeste 26 Nordeste 0 -- -- 29
2019-03-27 12:00:00 12 16 Nordeste 23 Nordeste 0 -- -- 33
2019-03-27 11:00:00 9 12 Nordeste 21 Nordeste 0 -- -- 47
2019-03-27 10:00:00 6.8 15 Nordeste 26 Nordeste 0 -- -- 52
2019-03-27 09:00:00 3.7 9 Nordeste 12 Nordeste 0 -- -- 67
2019-03-27 08:00:00 -0.4 0 Calma 10 Nordeste 0 -- -- 74
2019-03-27 07:00:00 -0.7 5 Norte 14 Norte 0 -- -- 73
2019-03-27 06:00:00 -0.3 7 Norte 17 Nordeste 0 -- -- 70
2019-03-27 05:00:00 0.7 7 Norte 17 Nordeste 0 -- -- 63
2019-03-27 04:00:00 0.6 9 Norte 13 Nordeste 0 -- -- 60
2019-03-27 03:00:00 1 6 Nordeste 24 Nordeste 0 -- -- 55
2019-03-27 02:00:00 3.4 20 Nordeste 27 Nordeste 0 -- -- 46
2019-03-27 01:00:00 4.6 21 Nordeste 28 Nordeste 0 -- -- 39
2019-03-27 00:00:00 5.8 18 Nordeste 27 Nordeste 0 -- -- 33